sensor_id;sensor_type;location;lat;lon;timestamp;pressure;altitude;pressure_sealevel;temperature;humidity
63285;BME280;49409;55.708;37.522;2022-09-21T00:00:29;99302.25;;;13.20;57.23
63285;BME280;49409;55.708;37.522;2022-09-21T00:02:56;99304.41;;;13.13;58.10
63285;BME280;49409;55.708;37.522;2022-09-21T00:05:22;99313.28;;;13.20;57.75
63285;BME280;49409;55.708;37.522;2022-09-21T00:07:48;99312.44;;;13.23;57.80
63285;BME280;49409;55.708;37.522;2022-09-21T00:10:14;99316.38;;;13.22;57.53
63285;BME280;49409;55.708;37.522;2022-09-21T00:12:39;99306.91;;;13.23;58.12
63285;BME280;49409;55.708;37.522;2022-09-21T00:15:09;99310.34;;;13.27;57.52
63285;BME280;49409;55.708;37.522;2022-09-21T00:17:35;99299.31;;;13.11;57.32
63285;BME280;49409;55.708;37.522;2022-09-21T00:20:02;99291.41;;;13.13;57.55
63285;BME280;49409;55.708;37.522;2022-09-21T00:22:30;99301.47;;;13.20;57.28
63285;BME280;49409;55.708;37.522;2022-09-21T00:24:56;99281.94;;;12.98;56.81
63285;BME280;49409;55.708;37.522;2022-09-21T00:27:21;99280.81;;;12.95;57.37
63285;BME280;49409;55.708;37.522;2022-09-21T00:29:54;99302.28;;;13.04;57.20
63285;BME280;49409;55.708;37.522;2022-09-21T00:32:20;99309.19;;;13.12;57.67
63285;BME280;49409;55.708;37.522;2022-09-21T00:34:46;99319.72;;;13.17;57.32
63285;BME280;49409;55.708;37.522;2022-09-21T00:37:11;99317.81;;;13.14;57.23
63285;BME280;49409;55.708;37.522;2022-09-21T00:39:37;99318.13;;;13.16;57.23
63285;BME280;49409;55.708;37.522;2022-09-21T00:42:09;99325.22;;;13.17;57.03
63285;BME280;49409;55.708;37.522;2022-09-21T00:44:35;99305.06;;;13.04;57.05
63285;BME280;49409;55.708;37.522;2022-09-21T00:47:09;99313.84;;;13.15;56.84
63285;BME280;49409;55.708;37.522;2022-09-21T00:49:36;99302.53;;;13.09;56.87
63285;BME280;49409;55.708;37.522;2022-09-21T00:52:04;99311.16;;;13.12;57.09
63285;BME280;49409;55.708;37.522;2022-09-21T00:54:36;99303.50;;;13.03;56.97
63285;BME280;49409;55.708;37.522;2022-09-21T00:57:04;99305.91;;;13.01;56.77
63285;BME280;49409;55.708;37.522;2022-09-21T00:59:31;99300.47;;;12.97;56.74
63285;BME280;49409;55.708;37.522;2022-09-21T01:01:58;99322.31;;;13.08;56.65
63285;BME280;49409;55.708;37.522;2022-09-21T01:04:24;99296.94;;;12.97;57.04
63285;BME280;49409;55.708;37.522;2022-09-21T01:06:53;99276.25;;;12.88;57.47
63285;BME280;49409;55.708;37.522;2022-09-21T01:09:20;99315.56;;;13.09;57.77
63285;BME280;49409;55.708;37.522;2022-09-21T01:17:13;99314.19;;;13.17;56.96
63285;BME280;49409;55.708;37.522;2022-09-21T01:30:45;99293.66;;;13.02;57.46
63285;BME280;49409;55.708;37.522;2022-09-21T01:33:47;99308.44;;;13.24;57.07
63285;BME280;49409;55.708;37.522;2022-09-21T01:36:18;99308.84;;;13.10;57.29
63285;BME280;49409;55.708;37.522;2022-09-21T01:38:52;99309.00;;;13.03;57.14
63285;BME280;49409;55.708;37.522;2022-09-21T01:41:22;99316.28;;;12.97;56.96
63285;BME280;49409;55.708;37.522;2022-09-21T01:43:56;99317.84;;;12.98;57.11
63285;BME280;49409;55.708;37.522;2022-09-21T01:46:26;99297.75;;;12.81;57.10
63285;BME280;49409;55.708;37.522;2022-09-21T01:48:57;99297.84;;;12.77;57.28
63285;BME280;49409;55.708;37.522;2022-09-21T01:51:26;99294.75;;;12.75;57.59
63285;BME280;49409;55.708;37.522;2022-09-21T01:53:58;99314.25;;;12.84;57.81
63285;BME280;49409;55.708;37.522;2022-09-21T01:56:35;99316.81;;;12.92;57.26
63285;BME280;49409;55.708;37.522;2022-09-21T02:01:48;99318.53;;;12.85;57.46
63285;BME280;49409;55.708;37.522;2022-09-21T02:04:15;99299.56;;;12.71;57.43
63285;BME280;49409;55.708;37.522;2022-09-21T02:06:43;99298.03;;;12.70;57.47
63285;BME280;49409;55.708;37.522;2022-09-21T02:09:10;99322.19;;;12.82;57.21
63285;BME280;49409;55.708;37.522;2022-09-21T02:11:36;99298.56;;;12.65;57.44
63285;BME280;49409;55.708;37.522;2022-09-21T02:14:11;99323.03;;;12.79;57.74
63285;BME280;49409;55.708;37.522;2022-09-21T02:30:19;99333.56;;;12.84;57.78
63285;BME280;49409;55.708;37.522;2022-09-21T02:39:05;99324.50;;;12.84;58.21
63285;BME280;49409;55.708;37.522;2022-09-21T02:44:25;99332.16;;;12.93;57.62
63285;BME280;49409;55.708;37.522;2022-09-21T02:47:28;99335.88;;;13.02;57.69
63285;BME280;49409;55.708;37.522;2022-09-21T02:50:02;99344.78;;;12.94;57.85
63285;BME280;49409;55.708;37.522;2022-09-21T02:52:29;99323.28;;;12.85;57.87
63285;BME280;49409;55.708;37.522;2022-09-21T02:54:57;99332.72;;;12.87;57.91
63285;BME280;49409;55.708;37.522;2022-09-21T02:57:23;99308.88;;;12.77;58.16
63285;BME280;49409;55.708;37.522;2022-09-21T02:59:50;99332.50;;;12.95;58.08
63285;BME280;49409;55.708;37.522;2022-09-21T03:02:16;99326.91;;;12.98;58.03
63285;BME280;49409;55.708;37.522;2022-09-21T03:04:44;99319.94;;;12.94;58.80
63285;BME280;49409;55.708;37.522;2022-09-21T03:07:15;99340.41;;;13.09;58.44
63285;BME280;49409;55.708;37.522;2022-09-21T03:09:41;99314.19;;;13.01;58.62
63285;BME280;49409;55.708;37.522;2022-09-21T03:12:06;99311.25;;;13.08;58.60
63285;BME280;49409;55.708;37.522;2022-09-21T03:14:32;99309.50;;;13.14;58.21
63285;BME280;49409;55.708;37.522;2022-09-21T03:16:58;99317.16;;;13.23;58.76
63285;BME280;49409;55.708;37.522;2022-09-21T03:19:25;99325.53;;;13.36;58.72
63285;BME280;49409;55.708;37.522;2022-09-21T03:21:51;99313.03;;;13.31;58.53
63285;BME280;49409;55.708;37.522;2022-09-21T03:24:16;99317.59;;;13.38;58.60
63285;BME280;49409;55.708;37.522;2022-09-21T03:27:02;99325.81;;;13.54;58.47
63285;BME280;49409;55.708;37.522;2022-09-21T03:29:27;99323.72;;;13.58;58.47
63285;BME280;49409;55.708;37.522;2022-09-21T03:31:53;99327.16;;;13.62;58.57
63285;BME280;49409;55.708;37.522;2022-09-21T03:34:20;99331.63;;;13.73;58.55
63285;BME280;49409;55.708;37.522;2022-09-21T03:36:45;99309.25;;;13.67;58.63
63285;BME280;49409;55.708;37.522;2022-09-21T03:39:12;99324.22;;;13.82;58.69
63285;BME280;49409;55.708;37.522;2022-09-21T03:41:38;99300.66;;;13.78;58.89
63285;BME280;49409;55.708;37.522;2022-09-21T03:44:03;99319.94;;;13.94;58.83
63285;BME280;49409;55.708;37.522;2022-09-21T03:46:29;99307.75;;;13.92;58.68
63285;BME280;49409;55.708;37.522;2022-09-21T03:48:54;99301.09;;;13.89;58.53
63285;BME280;49409;55.708;37.522;2022-09-21T03:51:20;99309.88;;;14.00;58.83
63285;BME280;49409;55.708;37.522;2022-09-21T03:53:45;99316.72;;;14.08;58.46
63285;BME280;49409;55.708;37.522;2022-09-21T03:56:11;99309.97;;;14.09;58.79
63285;BME280;49409;55.708;37.522;2022-09-21T03:58:36;99310.84;;;14.06;58.64
63285;BME280;49409;55.708;37.522;2022-09-21T04:01:02;99321.59;;;14.17;58.35
63285;BME280;49409;55.708;37.522;2022-09-21T04:03:28;99321.81;;;14.23;58.65
63285;BME280;49409;55.708;37.522;2022-09-21T04:05:54;99306.31;;;14.13;58.81
63285;BME280;49409;55.708;37.522;2022-09-21T04:08:20;99312.63;;;14.26;58.74
63285;BME280;49409;55.708;37.522;2022-09-21T04:10:45;99320.38;;;14.31;58.87
63285;BME280;49409;55.708;37.522;2022-09-21T04:13:11;99322.59;;;14.36;58.76
63285;BME280;49409;55.708;37.522;2022-09-21T04:15:38;99329.13;;;14.42;58.89
63285;BME280;49409;55.708;37.522;2022-09-21T04:18:03;99305.31;;;14.32;59.02
63285;BME280;49409;55.708;37.522;2022-09-21T04:24:11;99320.81;;;14.68;58.35
63285;BME280;49409;55.708;37.522;2022-09-21T04:26:36;99308.41;;;14.60;58.70
63285;BME280;49409;55.708;37.522;2022-09-21T04:29:02;99314.72;;;14.73;58.67
63285;BME280;49409;55.708;37.522;2022-09-21T04:31:28;99303.53;;;14.64;58.65
63285;BME280;49409;55.708;37.522;2022-09-21T04:33:55;99300.97;;;14.70;58.63
63285;BME280;49409;55.708;37.522;2022-09-21T04:36:22;99307.94;;;14.74;58.78
63285;BME280;49409;55.708;37.522;2022-09-21T04:38:49;99315.09;;;14.84;59.05
63285;BME280;49409;55.708;37.522;2022-09-21T04:41:15;99312.00;;;14.82;59.06
63285;BME280;49409;55.708;37.522;2022-09-21T04:43:42;99302.59;;;14.80;59.10
63285;BME280;49409;55.708;37.522;2022-09-21T04:46:13;99312.75;;;14.96;58.79
63285;BME280;49409;55.708;37.522;2022-09-21T04:48:39;99307.75;;;15.03;58.71
63285;BME280;49409;55.708;37.522;2022-09-21T04:51:06;99321.22;;;15.14;58.81
63285;BME280;49409;55.708;37.522;2022-09-21T04:53:36;99316.31;;;15.18;58.59
63285;BME280;49409;55.708;37.522;2022-09-21T04:56:03;99322.59;;;15.32;58.36
63285;BME280;49409;55.708;37.522;2022-09-21T04:58:29;99338.97;;;15.39;58.58
63285;BME280;49409;55.708;37.522;2022-09-21T05:00:54;99326.78;;;15.36;58.38
63285;BME280;49409;55.708;37.522;2022-09-21T05:03:22;99340.16;;;15.51;58.55
63285;BME280;49409;55.708;37.522;2022-09-21T05:05:52;99328.94;;;15.54;58.13
63285;BME280;49409;55.708;37.522;2022-09-21T05:08:18;99344.72;;;15.66;57.65
63285;BME280;49409;55.708;37.522;2022-09-21T05:11:12;99336.81;;;15.78;57.73
63285;BME280;49409;55.708;37.522;2022-09-21T05:13:39;99329.44;;;15.84;57.68
63285;BME280;49409;55.708;37.522;2022-09-21T05:16:05;99308.97;;;15.69;57.66
63285;BME280;49409;55.708;37.522;2022-09-21T05:18:31;99319.25;;;15.81;57.47
63285;BME280;49409;55.708;37.522;2022-09-21T05:20:58;99326.06;;;15.89;57.61
63285;BME280;49409;55.708;37.522;2022-09-21T05:23:25;99347.06;;;15.99;57.47
63285;BME280;49409;55.708;37.522;2022-09-21T05:25:51;99342.19;;;16.03;57.58
63285;BME280;49409;55.708;37.522;2022-09-21T05:28:18;99340.38;;;16.10;57.43
63285;BME280;49409;55.708;37.522;2022-09-21T05:30:47;99335.00;;;16.15;57.43
63285;BME280;49409;55.708;37.522;2022-09-21T05:33:20;99325.56;;;16.13;57.48
63285;BME280;49409;55.708;37.522;2022-09-21T05:39:08;99333.97;;;16.90;55.69
63285;BME280;49409;55.708;37.522;2022-09-21T05:41:34;99325.13;;;16.55;56.37
63285;BME280;49409;55.708;37.522;2022-09-21T05:44:00;99330.34;;;16.62;56.43
63285;BME280;49409;55.708;37.522;2022-09-21T05:46:45;99324.53;;;16.69;56.17
63285;BME280;49409;55.708;37.522;2022-09-21T05:49:18;99330.84;;;16.70;56.53
63285;BME280;49409;55.708;37.522;2022-09-21T05:51:51;99328.69;;;16.74;56.08
63285;BME280;49409;55.708;37.522;2022-09-21T05:57:54;99316.84;;;16.82;55.91
63285;BME280;49409;55.708;37.522;2022-09-21T06:05:12;99320.25;;;16.96;55.19
63285;BME280;49409;55.708;37.522;2022-09-21T06:07:38;99319.47;;;16.95;55.24
63285;BME280;49409;55.708;37.522;2022-09-21T06:10:04;99313.47;;;17.06;55.54
63285;BME280;49409;55.708;37.522;2022-09-21T06:12:30;99307.28;;;17.11;55.12
63285;BME280;49409;55.708;37.522;2022-09-21T06:14:56;99320.56;;;17.25;54.59
63285;BME280;49409;55.708;37.522;2022-09-21T06:17:22;99327.06;;;17.22;54.42
63285;BME280;49409;55.708;37.522;2022-09-21T06:19:52;99313.00;;;17.17;54.43
63285;BME280;49409;55.708;37.522;2022-09-21T06:22:17;99336.94;;;17.33;54.53
63285;BME280;49409;55.708;37.522;2022-09-21T06:24:43;99317.94;;;17.31;54.22
63285;BME280;49409;55.708;37.522;2022-09-21T06:27:08;99337.25;;;17.44;54.13
63285;BME280;49409;55.708;37.522;2022-09-21T06:29:34;99302.03;;;17.32;54.07
63285;BME280;49409;55.708;37.522;2022-09-21T06:32:01;99301.09;;;17.35;54.08
63285;BME280;49409;55.708;37.522;2022-09-21T06:34:26;99327.34;;;17.61;53.98
63285;BME280;49409;55.708;37.522;2022-09-21T06:36:52;99330.44;;;17.63;53.95
63285;BME280;49409;55.708;37.522;2022-09-21T06:39:17;99335.19;;;17.72;53.61
63285;BME280;49409;55.708;37.522;2022-09-21T06:41:43;99308.47;;;17.66;52.98
63285;BME280;49409;55.708;37.522;2022-09-21T06:44:08;99326.34;;;17.83;53.17
63285;BME280;49409;55.708;37.522;2022-09-21T06:46:34;99328.84;;;17.90;52.95
63285;BME280;49409;55.708;37.522;2022-09-21T06:48:59;99334.09;;;17.97;52.83
63285;BME280;49409;55.708;37.522;2022-09-21T06:51:25;99326.03;;;17.99;52.52
63285;BME280;49409;55.708;37.522;2022-09-21T06:53:54;99324.75;;;18.19;52.78
63285;BME280;49409;55.708;37.522;2022-09-21T06:56:20;99324.75;;;18.19;51.91
63285;BME280;49409;55.708;37.522;2022-09-21T06:58:45;99340.13;;;18.38;52.23
63285;BME280;49409;55.708;37.522;2022-09-21T07:01:13;99340.38;;;18.50;51.58
63285;BME280;49409;55.708;37.522;2022-09-21T07:03:42;99344.19;;;18.61;50.99
63285;BME280;49409;55.708;37.522;2022-09-21T07:06:09;99336.72;;;18.68;51.25
63285;BME280;49409;55.708;37.522;2022-09-21T07:08:36;99322.19;;;18.63;51.63
63285;BME280;49409;55.708;37.522;2022-09-21T07:11:04;99333.66;;;18.90;51.70
63285;BME280;49409;55.708;37.522;2022-09-21T07:13:30;99332.13;;;18.89;49.93
63285;BME280;49409;55.708;37.522;2022-09-21T07:15:55;99329.34;;;18.89;50.65
63285;BME280;49409;55.708;37.522;2022-09-21T07:18:21;99332.28;;;18.85;50.32
63285;BME280;49409;55.708;37.522;2022-09-21T07:20:47;99333.56;;;18.84;50.17
63285;BME280;49409;55.708;37.522;2022-09-21T07:23:18;99333.06;;;18.86;50.53
63285;BME280;49409;55.708;37.522;2022-09-21T07:25:48;99315.78;;;18.72;50.83
63285;BME280;49409;55.708;37.522;2022-09-21T07:28:15;99335.25;;;18.81;50.13
63285;BME280;49409;55.708;37.522;2022-09-21T07:30:41;99308.53;;;18.66;50.48
63285;BME280;49409;55.708;37.522;2022-09-21T07:33:06;99333.34;;;18.88;50.17
63285;BME280;49409;55.708;37.522;2022-09-21T07:35:33;99306.47;;;18.75;50.52
63285;BME280;49409;55.708;37.522;2022-09-21T07:38:00;99317.28;;;18.82;50.41
63285;BME280;49409;55.708;37.522;2022-09-21T07:40:31;99339.16;;;18.99;50.48
63285;BME280;49409;55.708;37.522;2022-09-21T07:43:00;99327.97;;;19.08;49.99
63285;BME280;49409;55.708;37.522;2022-09-21T07:45:29;99333.72;;;19.05;49.81
63285;BME280;49409;55.708;37.522;2022-09-21T07:48:01;99340.16;;;19.11;49.84
63285;BME280;49409;55.708;37.522;2022-09-21T07:50:27;99325.06;;;19.02;49.53
63285;BME280;49409;55.708;37.522;2022-09-21T07:52:52;99319.59;;;19.08;50.14
63285;BME280;49409;55.708;37.522;2022-09-21T07:55:18;99328.19;;;19.19;49.71
63285;BME280;49409;55.708;37.522;2022-09-21T07:57:43;99339.94;;;19.24;49.10
63285;BME280;49409;55.708;37.522;2022-09-21T08:00:27;99338.97;;;19.27;48.64
63285;BME280;49409;55.708;37.522;2022-09-21T08:02:57;99338.25;;;19.17;48.90
63285;BME280;49409;55.708;37.522;2022-09-21T08:05:22;99303.31;;;18.92;48.26
63285;BME280;49409;55.708;37.522;2022-09-21T08:07:48;99329.38;;;19.03;48.42
63285;BME280;49409;55.708;37.522;2022-09-21T08:10:13;99320.63;;;18.96;48.45
63285;BME280;49409;55.708;37.522;2022-09-21T08:12:40;99320.63;;;18.96;48.62
63285;BME280;49409;55.708;37.522;2022-09-21T08:15:08;99341.31;;;19.04;48.80
63285;BME280;49409;55.708;37.522;2022-09-21T08:17:37;99321.56;;;18.93;48.74
63285;BME280;49409;55.708;37.522;2022-09-21T08:20:03;99338.22;;;19.02;48.32
63285;BME280;49409;55.708;37.522;2022-09-21T08:22:28;99331.41;;;19.03;48.85
63285;BME280;49409;55.708;37.522;2022-09-21T08:24:54;99335.44;;;19.02;48.92
63285;BME280;49409;55.708;37.522;2022-09-21T08:27:21;99339.47;;;19.01;49.25
63285;BME280;49409;55.708;37.522;2022-09-21T08:29:49;99315.50;;;18.94;49.45
63285;BME280;49409;55.708;37.522;2022-09-21T08:32:14;99319.06;;;18.95;48.96
63285;BME280;49409;55.708;37.522;2022-09-21T08:34:40;99329.19;;;19.07;49.70
63285;BME280;49409;55.708;37.522;2022-09-21T08:37:05;99329.00;;;19.11;49.08
63285;BME280;49409;55.708;37.522;2022-09-21T08:39:31;99328.84;;;19.14;48.58
63285;BME280;49409;55.708;37.522;2022-09-21T08:42:08;99314.47;;;19.07;48.34
63285;BME280;49409;55.708;37.522;2022-09-21T08:44:37;99325.53;;;19.01;48.45
63285;BME280;49409;55.708;37.522;2022-09-21T08:47:16;99309.19;;;18.94;48.98
63285;BME280;49409;55.708;37.522;2022-09-21T08:49:48;99314.31;;;19.10;49.25
63285;BME280;49409;55.708;37.522;2022-09-21T08:52:18;99306.81;;;19.16;49.38
63285;BME280;49409;55.708;37.522;2022-09-21T08:57:17;99286.25;;;19.29;48.34
63285;BME280;49409;55.708;37.522;2022-09-21T08:59:45;99291.47;;;19.36;48.48
63285;BME280;49409;55.708;37.522;2022-09-21T09:22:25;99282.06;;;19.63;47.50
63285;BME280;49409;55.708;37.522;2022-09-21T09:24:58;99269.53;;;19.58;46.59
63285;BME280;49409;55.708;37.522;2022-09-21T09:27:49;99292.16;;;19.90;47.54
63285;BME280;49409;55.708;37.522;2022-09-21T09:30:22;99269.56;;;19.73;46.88
63285;BME280;49409;55.708;37.522;2022-09-21T09:33:02;99278.59;;;19.83;45.30
63285;BME280;49409;55.708;37.522;2022-09-21T09:35:34;99279.84;;;20.32;46.35
63285;BME280;49409;55.708;37.522;2022-09-21T09:38:08;99285.72;;;19.84;45.78
63285;BME280;49409;55.708;37.522;2022-09-21T09:40:57;99286.28;;;19.88;46.13
63285;BME280;49409;55.708;37.522;2022-09-21T09:49:33;99286.19;;;19.83;45.50
63285;BME280;49409;55.708;37.522;2022-09-21T09:51:59;99285.69;;;19.69;44.95
63285;BME280;49409;55.708;37.522;2022-09-21T09:54:32;99290.50;;;19.69;44.36
63285;BME280;49409;55.708;37.522;2022-09-21T09:57:01;99271.06;;;19.59;44.67
63285;BME280;49409;55.708;37.522;2022-09-21T09:59:34;99275.13;;;19.73;45.31
63285;BME280;49409;55.708;37.522;2022-09-21T10:05:01;99275.00;;;19.97;45.01
63285;BME280;49409;55.708;37.522;2022-09-21T10:10:42;99283.47;;;20.03;44.24
63285;BME280;49409;55.708;37.522;2022-09-21T10:13:33;99291.25;;;20.14;44.83
63285;BME280;49409;55.708;37.522;2022-09-21T10:16:10;99259.06;;;19.83;44.53
63285;BME280;49409;55.708;37.522;2022-09-21T10:21:36;99278.38;;;20.01;44.65
63285;BME280;49409;55.708;37.522;2022-09-21T10:24:06;99271.66;;;19.93;44.52
63285;BME280;49409;55.708;37.522;2022-09-21T10:32:00;99270.28;;;20.04;43.91
63285;BME280;49409;55.708;37.522;2022-09-21T10:34:31;99271.84;;;19.90;43.97
63285;BME280;49409;55.708;37.522;2022-09-21T10:37:19;99253.47;;;19.83;44.00
63285;BME280;49409;55.708;37.522;2022-09-21T10:42:48;99253.63;;;19.94;43.93
63285;BME280;49409;55.708;37.522;2022-09-21T10:45:20;99251.44;;;19.98;43.86
63285;BME280;49409;55.708;37.522;2022-09-21T10:50:33;99270.69;;;19.96;43.41
63285;BME280;49409;55.708;37.522;2022-09-21T10:58:12;99221.22;;;19.67;44.22
63285;BME280;49409;55.708;37.522;2022-09-21T11:00:46;99271.84;;;19.90;44.11
63285;BME280;49409;55.708;37.522;2022-09-21T11:06:06;99276.84;;;19.86;44.69
63285;BME280;49409;55.708;37.522;2022-09-21T11:08:59;99257.88;;;19.90;44.39
63285;BME280;49409;55.708;37.522;2022-09-21T11:11:49;99271.75;;;19.84;44.87
63285;BME280;49409;55.708;37.522;2022-09-21T11:16:59;99259.91;;;19.59;44.80
63285;BME280;49409;55.708;37.522;2022-09-21T11:19:55;99268.09;;;19.78;44.64
63285;BME280;49409;55.708;37.522;2022-09-21T11:22:39;99257.00;;;19.69;45.05
63285;BME280;49409;55.708;37.522;2022-09-21T11:28:14;99246.47;;;19.73;45.06
63285;BME280;49409;55.708;37.522;2022-09-21T11:45:01;99245.47;;;19.46;44.78
63285;BME280;49409;55.708;37.522;2022-09-21T12:00:53;99252.19;;;19.69;45.61
63285;BME280;49409;55.708;37.522;2022-09-21T12:18:00;99235.94;;;19.53;44.85
63285;BME280;49409;55.708;37.522;2022-09-21T12:23:04;99222.56;;;19.42;45.52
63285;BME280;49409;55.708;37.522;2022-09-21T12:25:36;99231.13;;;19.53;45.38
63285;BME280;49409;55.708;37.522;2022-09-21T12:28:23;99239.50;;;19.53;45.57
63285;BME280;49409;55.708;37.522;2022-09-21T12:30:55;99221.63;;;19.45;45.22
63285;BME280;49409;55.708;37.522;2022-09-21T12:33:31;99232.47;;;19.43;45.32
63285;BME280;49409;55.708;37.522;2022-09-21T12:36:19;99227.56;;;19.53;45.90
63285;BME280;49409;55.708;37.522;2022-09-21T12:41:29;99226.03;;;19.81;44.88
63285;BME280;49409;55.708;37.522;2022-09-21T12:44:16;99231.22;;;19.44;45.46
63285;BME280;49409;55.708;37.522;2022-09-21T12:47:05;99233.72;;;19.42;45.60
63285;BME280;49409;55.708;37.522;2022-09-21T12:49:39;99226.22;;;19.18;45.74
63285;BME280;49409;55.708;37.522;2022-09-21T12:52:07;99233.13;;;19.08;45.89
63285;BME280;49409;55.708;37.522;2022-09-21T13:00:13;99242.00;;;19.21;46.58
63285;BME280;49409;55.708;37.522;2022-09-21T13:03:13;99236.63;;;19.18;46.28
63285;BME280;49409;55.708;37.522;2022-09-21T13:08:14;99238.22;;;18.95;46.84
63285;BME280;49409;55.708;37.522;2022-09-21T13:10:55;99247.16;;;18.99;46.52
63285;BME280;49409;55.708;37.522;2022-09-21T13:13:26;99230.03;;;18.91;46.51
63285;BME280;49409;55.708;37.522;2022-09-21T13:15:54;99217.88;;;18.79;46.66
63285;BME280;49409;55.708;37.522;2022-09-21T13:18:38;99229.72;;;18.89;47.01
63285;BME280;49409;55.708;37.522;2022-09-21T13:21:19;99214.16;;;18.82;46.86
63285;BME280;49409;55.708;37.522;2022-09-21T13:24:00;99219.47;;;18.71;46.78
63285;BME280;49409;55.708;37.522;2022-09-21T13:26:31;99234.00;;;18.75;47.00
63285;BME280;49409;55.708;37.522;2022-09-21T13:31:54;99224.16;;;18.65;47.27
63285;BME280;49409;55.708;37.522;2022-09-21T13:47:54;99202.91;;;18.53;47.43
63285;BME280;49409;55.708;37.522;2022-09-21T13:52:54;99215.69;;;18.59;47.97
63285;BME280;49409;55.708;37.522;2022-09-21T13:57:51;99218.06;;;18.52;47.73
63285;BME280;49409;55.708;37.522;2022-09-21T14:00:35;99223.22;;;18.68;47.65
63285;BME280;49409;55.708;37.522;2022-09-21T14:03:04;99227.25;;;18.67;47.50
63285;BME280;49409;55.708;37.522;2022-09-21T14:11:14;99208.78;;;18.55;47.76
63285;BME280;49409;55.708;37.522;2022-09-21T14:13:43;99220.75;;;18.70;47.64
63285;BME280;49409;55.708;37.522;2022-09-21T14:18:54;99226.59;;;18.72;47.89
63285;BME280;49409;55.708;37.522;2022-09-21T14:21:20;99222.44;;;18.68;48.15
63285;BME280;49409;55.708;37.522;2022-09-21T14:24:20;99216.34;;;18.78;48.08
63285;BME280;49409;55.708;37.522;2022-09-21T14:26:56;99213.31;;;18.67;48.56
63285;BME280;49409;55.708;37.522;2022-09-21T14:29:45;99225.84;;;18.48;48.42
63285;BME280;49409;55.708;37.522;2022-09-21T14:32:24;99222.75;;;18.46;48.68
63285;BME280;49409;55.708;37.522;2022-09-21T14:34:54;99224.03;;;18.45;48.98
63285;BME280;49409;55.708;37.522;2022-09-21T14:37:32;99204.03;;;18.46;48.99
63285;BME280;49409;55.708;37.522;2022-09-21T14:40:02;99208.13;;;18.36;49.02
63285;BME280;49409;55.708;37.522;2022-09-21T14:42:30;99204.69;;;18.41;49.04
63285;BME280;49409;55.708;37.522;2022-09-21T14:44:59;99216.13;;;18.43;49.00
63285;BME280;49409;55.708;37.522;2022-09-21T14:47:39;99215.75;;;18.50;49.25
63285;BME280;49409;55.708;37.522;2022-09-21T14:55:57;99220.09;;;18.51;49.21
63285;BME280;49409;55.708;37.522;2022-09-21T15:01:37;99228.75;;;18.53;49.10
63285;BME280;49409;55.708;37.522;2022-09-21T15:04:28;99225.59;;;18.36;49.09
63285;BME280;49409;55.708;37.522;2022-09-21T15:07:15;99221.91;;;18.30;49.07
63285;BME280;49409;55.708;37.522;2022-09-21T15:12:53;99212.75;;;18.15;49.58
63285;BME280;49409;55.708;37.522;2022-09-21T15:15:35;99209.78;;;18.18;49.35
63285;BME280;49409;55.708;37.522;2022-09-21T15:18:20;99225.97;;;18.29;49.66
63285;BME280;49409;55.708;37.522;2022-09-21T15:21:28;99235.81;;;18.39;49.53
63285;BME280;49409;55.708;37.522;2022-09-21T15:23:54;99237.44;;;18.22;49.75
63285;BME280;49409;55.708;37.522;2022-09-21T15:26:31;99233.13;;;18.21;49.63
63285;BME280;49409;55.708;37.522;2022-09-21T15:29:02;99230.44;;;18.02;50.17
63285;BME280;49409;55.708;37.522;2022-09-21T15:31:33;99241.19;;;18.19;50.24
63285;BME280;49409;55.708;37.522;2022-09-21T15:34:00;99229.63;;;18.11;50.04
63285;BME280;49409;55.708;37.522;2022-09-21T15:36:29;99243.38;;;18.15;49.89
63285;BME280;49409;55.708;37.522;2022-09-21T15:38:55;99227.66;;;18.02;50.01
63285;BME280;49409;55.708;37.522;2022-09-21T15:41:42;99243.00;;;18.22;50.17
63285;BME280;49409;55.708;37.522;2022-09-21T15:44:13;99236.72;;;18.12;50.22
63285;BME280;49409;55.708;37.522;2022-09-21T15:46:40;99241.06;;;18.13;49.99
63285;BME280;49409;55.708;37.522;2022-09-21T15:49:17;99251.44;;;18.13;50.17
63285;BME280;49409;55.708;37.522;2022-09-21T15:52:19;99242.66;;;18.05;50.22
63285;BME280;49409;55.708;37.522;2022-09-21T15:54:44;99252.38;;;18.10;50.34
63285;BME280;49409;55.708;37.522;2022-09-21T15:57:40;99258.78;;;18.25;50.01
63285;BME280;49409;55.708;37.522;2022-09-21T16:02:40;99260.72;;;18.10;50.39
63285;BME280;49409;55.708;37.522;2022-09-21T16:05:10;99245.94;;;17.94;50.54
63285;BME280;49409;55.708;37.522;2022-09-21T16:07:38;99265.41;;;18.03;50.47
63285;BME280;49409;55.708;37.522;2022-09-21T16:13:16;99274.31;;;18.17;50.20
63285;BME280;49409;55.708;37.522;2022-09-21T16:16:05;99273.44;;;18.01;50.30
63285;BME280;49409;55.708;37.522;2022-09-21T16:18:40;99279.91;;;18.08;50.58
63285;BME280;49409;55.708;37.522;2022-09-21T16:21:22;99269.41;;;18.02;50.43
63285;BME280;49409;55.708;37.522;2022-09-21T16:23:50;99273.19;;;17.90;50.68
63285;BME280;49409;55.708;37.522;2022-09-21T16:26:22;99263.44;;;17.76;51.03
63285;BME280;49409;55.708;37.522;2022-09-21T16:28:56;99256.53;;;17.72;51.32
63285;BME280;49409;55.708;37.522;2022-09-21T16:31:40;99279.69;;;17.87;51.42
63285;BME280;49409;55.708;37.522;2022-09-21T16:34:21;99270.69;;;17.92;50.93
63285;BME280;49409;55.708;37.522;2022-09-21T16:36:48;99266.69;;;17.75;51.30
63285;BME280;49409;55.708;37.522;2022-09-21T16:39:16;99262.25;;;17.68;51.07
63285;BME280;49409;55.708;37.522;2022-09-21T16:41:48;99267.97;;;17.64;51.34
63285;BME280;49409;55.708;37.522;2022-09-21T16:44:19;99277.69;;;17.69;51.53
63285;BME280;49409;55.708;37.522;2022-09-21T16:47:01;99280.63;;;17.84;51.28
63285;BME280;49409;55.708;37.522;2022-09-21T16:49:29;99267.50;;;17.66;51.42
63285;BME280;49409;55.708;37.522;2022-09-21T16:51:57;99272.09;;;17.78;51.16